createdAt,value
2022-11-05T00:00:38.451Z,6.70
2022-11-05T00:03:24.890Z,6.07
2022-11-05T00:06:13.121Z,7.72
2022-11-05T00:09:00.890Z,6.68
2022-11-05T00:11:48.785Z,7.60
2022-11-05T00:14:35.078Z,6.30
2022-11-05T00:17:02.594Z,5.35
2022-11-05T00:19:30.153Z,7.10
2022-11-05T00:22:19.229Z,4.40
2022-11-05T00:25:05.400Z,2.80
2022-11-05T00:27:34.601Z,3.30
2022-11-05T00:30:07.299Z,6.22
2022-11-05T00:32:36.952Z,4.63
2022-11-05T00:35:06.471Z,9.93
2022-11-05T00:37:34.010Z,5.88
2022-11-05T00:40:01.573Z,6.45
2022-11-05T00:42:47.506Z,9.13
2022-11-05T00:45:15.305Z,13.38
2022-11-05T00:48:01.853Z,18.30
2022-11-05T00:50:30.565Z,16.58
2022-11-05T00:53:00.687Z,21.65
2022-11-05T00:55:39.646Z,22.27
2022-11-05T00:58:13.672Z,16.30
2022-11-05T01:00:44.710Z,13.75
2022-11-05T01:03:15.325Z,18.08
2022-11-05T01:05:53.833Z,16.35
2022-11-05T01:08:24.478Z,17.10
2022-11-05T01:10:56.414Z,17.52
2022-11-05T01:13:31.089Z,15.50
2022-11-05T01:16:07.942Z,13.65
2022-11-05T01:18:39.009Z,10.50
2022-11-05T01:21:16.065Z,12.75
2022-11-05T01:23:43.660Z,12.60
2022-11-05T01:26:11.088Z,13.45
2022-11-05T01:28:38.712Z,17.88
2022-11-05T01:31:06.552Z,11.57
2022-11-05T01:33:33.926Z,9.50
2022-11-05T01:36:01.365Z,12.70
2022-11-05T01:38:28.736Z,10.35
2022-11-05T01:40:56.220Z,13.18
2022-11-05T01:43:24.418Z,12.35
2022-11-05T01:45:58.748Z,10.30
2022-11-05T01:48:35.273Z,9.38
2022-11-05T01:51:12.523Z,9.18
2022-11-05T01:54:04.007Z,7.50
2022-11-05T01:56:56.819Z,9.93
2022-11-05T01:59:44.661Z,7.93
2022-11-05T02:02:12.521Z,7.28
2022-11-05T02:04:49.063Z,7.95
2022-11-05T02:07:17.581Z,8.38
2022-11-05T02:10:09.170Z,5.63
2022-11-05T02:12:41.124Z,7.03
2022-11-05T02:15:17.998Z,6.28
2022-11-05T02:18:21.168Z,7.57
2022-11-05T02:21:31.868Z,7.53
2022-11-05T02:24:42.994Z,6.97
2022-11-05T02:27:36.618Z,5.22
2022-11-05T02:30:37.959Z,8.40
2022-11-05T02:33:39.234Z,4.13
2022-11-05T02:36:35.298Z,5.43
2022-11-05T02:39:47.225Z,5.60
2022-11-05T02:42:48.519Z,6.47
2022-11-05T02:46:04.911Z,4.75
2022-11-05T02:49:04.563Z,4.38
2022-11-05T02:52:05.712Z,4.78
2022-11-05T02:54:47.500Z,5.63
2022-11-05T02:57:15.200Z,4.57
2022-11-05T02:59:42.659Z,5.25
2022-11-05T03:02:10.361Z,5.95
2022-11-05T03:04:38.034Z,4.15
2022-11-05T03:07:50.350Z,7.40
2022-11-05T03:10:44.235Z,3.30
2022-11-05T03:13:40.621Z,3.40
2022-11-05T03:16:19.275Z,4.55
2022-11-05T03:19:12.394Z,4.70
2022-11-05T03:21:47.953Z,3.83
2022-11-05T03:24:28.606Z,3.80
2022-11-05T03:27:20.152Z,3.75
2022-11-05T03:29:53.624Z,4.25
2022-11-05T03:32:22.710Z,3.20
2022-11-05T03:35:02.308Z,3.10
2022-11-05T03:37:34.511Z,3.88
2022-11-05T03:40:06.960Z,2.90
2022-11-05T03:42:39.642Z,3.05
2022-11-05T03:45:16.664Z,4.13
2022-11-05T03:47:47.536Z,5.40
2022-11-05T03:50:37.071Z,3.15
2022-11-05T03:53:19.077Z,3.60
2022-11-05T03:56:11.024Z,2.85
2022-11-05T03:58:43.809Z,3.45
2022-11-05T04:01:12.702Z,2.60
2022-11-05T04:03:40.251Z,4.57
2022-11-05T04:06:29.020Z,4.13
2022-11-05T04:09:15.321Z,3.80
2022-11-05T04:12:01.387Z,3.15
2022-11-05T04:14:28.899Z,3.58
2022-11-05T04:17:09.794Z,4.43
2022-11-05T04:20:04.334Z,4.13
2022-11-05T04:22:54.129Z,3.45
2022-11-05T04:25:22.698Z,5.20
2022-11-05T04:27:49.914Z,3.15
2022-11-05T04:30:19.134Z,3.28
2022-11-05T04:33:02.526Z,2.83
2022-11-05T04:35:41.427Z,3.47
2022-11-05T04:38:18.734Z,6.68
2022-11-05T04:40:48.427Z,5.93
2022-11-05T04:43:19.463Z,8.98
2022-11-05T04:45:47.453Z,7.22
2022-11-05T04:48:15.120Z,8.32
2022-11-05T04:50:42.672Z,6.20
2022-11-05T04:53:10.346Z,8.13
2022-11-05T04:55:38.066Z,7.90
2022-11-05T04:58:05.470Z,5.95
2022-11-05T05:00:32.922Z,5.32
2022-11-05T05:03:00.846Z,13.13
2022-11-05T05:05:30.782Z,11.25
2022-11-05T05:08:07.598Z,3.35
2022-11-05T05:10:35.574Z,5.22
2022-11-05T05:13:03.016Z,4.47
2022-11-05T05:15:30.398Z,3.33
2022-11-05T05:17:57.962Z,5.53
2022-11-05T05:20:44.203Z,3.22
2022-11-05T05:23:12.990Z,4.45
2022-11-05T05:25:40.528Z,5.03
2022-11-05T05:28:07.881Z,2.63
2022-11-05T05:30:35.529Z,4.25
2022-11-05T05:33:04.562Z,4.55
2022-11-05T05:35:32.305Z,7.25
2022-11-05T05:37:59.945Z,3.72
2022-11-05T05:40:27.812Z,5.40
2022-11-05T05:42:58.422Z,6.28
2022-11-05T05:45:26.139Z,6.10
2022-11-05T05:47:56.557Z,9.52
2022-11-05T05:50:23.951Z,14.55
2022-11-05T05:52:53.231Z,10.38
2022-11-05T05:55:20.861Z,7.60
2022-11-05T05:57:48.363Z,14.15
2022-11-05T06:00:16.300Z,13.13
2022-11-05T06:02:43.982Z,16.63
2022-11-05T06:05:11.352Z,13.63
2022-11-05T06:07:38.759Z,13.57
2022-11-05T06:10:07.051Z,15.95
2022-11-05T06:12:34.629Z,7.90
2022-11-05T06:15:02.125Z,14.02
2022-11-05T06:17:29.872Z,22.25
2022-11-05T06:19:57.540Z,15.88
2022-11-05T06:22:25.028Z,30.50
2022-11-05T06:24:52.409Z,15.18
2022-11-05T06:27:19.768Z,20.85
2022-11-05T06:29:47.301Z,16.33
2022-11-05T06:32:14.894Z,13.75
2022-11-05T06:34:42.719Z,18.35
2022-11-05T06:37:10.094Z,17.33
2022-11-05T06:39:37.582Z,14.45
2022-11-05T06:42:18.089Z,10.90
2022-11-05T06:44:46.017Z,15.82
2022-11-05T06:47:13.471Z,21.00
2022-11-05T06:49:40.848Z,14.68
2022-11-05T06:52:08.428Z,15.13
2022-11-05T06:54:35.986Z,28.00
2022-11-05T06:57:04.662Z,18.63
2022-11-05T06:59:32.550Z,18.88
2022-11-05T07:02:00.174Z,21.73
2022-11-05T07:04:27.700Z,14.10
2022-11-05T07:06:55.067Z,16.70
2022-11-05T07:09:22.781Z,10.50
2022-11-05T07:11:50.362Z,9.50
2022-11-05T07:14:17.685Z,12.88
2022-11-05T07:16:45.201Z,15.93
2022-11-05T07:19:12.694Z,8.82
2022-11-05T07:21:40.193Z,10.75
2022-11-05T07:24:08.453Z,7.55
2022-11-05T07:26:35.984Z,8.30
2022-11-05T07:29:03.479Z,7.88
2022-11-05T07:31:31.202Z,10.45
2022-11-05T07:33:59.384Z,12.18
2022-11-05T07:36:26.899Z,14.57
2022-11-05T07:38:59.884Z,15.93
2022-11-05T07:41:28.272Z,15.45
2022-11-05T07:43:55.759Z,12.18
2022-11-05T07:46:23.130Z,12.43
2022-11-05T07:48:50.337Z,10.70
2022-11-05T07:51:17.794Z,11.45
2022-11-05T07:53:45.727Z,12.38
2022-11-05T07:56:13.589Z,15.60
2022-11-05T07:58:41.227Z,15.48
2022-11-05T08:01:08.951Z,10.60
2022-11-05T08:03:36.885Z,13.18
2022-11-05T08:06:04.742Z,10.32
2022-11-05T08:08:32.111Z,8.88
2022-11-05T08:11:07.873Z,15.27
2022-11-05T08:13:36.270Z,8.95
2022-11-05T08:16:05.501Z,10.48
2022-11-05T08:18:33.619Z,12.60
2022-11-05T08:21:04.294Z,12.20
2022-11-05T08:23:32.712Z,12.18
2022-11-05T08:26:03.113Z,9.55
2022-11-05T08:28:30.823Z,10.40
2022-11-05T08:30:58.724Z,12.38
2022-11-05T08:33:27.682Z,6.45
2022-11-05T08:35:55.205Z,8.55
2022-11-05T08:38:22.798Z,9.30
2022-11-05T08:40:58.732Z,11.05
2022-11-05T08:43:26.759Z,11.70
2022-11-05T08:45:55.233Z,17.52
2022-11-05T08:48:22.786Z,14.45
2022-11-05T08:50:53.303Z,29.35
2022-11-05T08:53:20.946Z,16.77
2022-11-05T08:55:50.374Z,19.15
2022-11-05T08:58:18.731Z,21.15
2022-11-05T09:00:49.233Z,18.42
2022-11-05T09:03:17.608Z,20.58
2022-11-05T09:05:45.582Z,17.05
2022-11-05T09:08:18.963Z,23.42
2022-11-05T09:10:50.042Z,26.13
2022-11-05T09:13:19.804Z,19.25
2022-11-05T09:15:51.531Z,23.48
2022-11-05T09:18:20.510Z,16.95
2022-11-05T09:20:48.033Z,34.55
2022-11-05T09:23:15.876Z,33.15
2022-11-05T09:25:44.373Z,24.08
2022-11-05T09:28:20.895Z,26.98
2022-11-05T09:30:52.036Z,20.02
2022-11-05T09:33:23.419Z,20.42
2022-11-05T09:35:52.065Z,28.40
2022-11-05T09:38:19.752Z,22.65
2022-11-05T09:41:00.202Z,24.15
2022-11-05T09:43:51.120Z,17.63
2022-11-05T09:46:27.854Z,14.80
2022-11-05T09:49:06.660Z,12.30
2022-11-05T09:51:37.080Z,16.40
2022-11-05T09:54:05.771Z,19.70
2022-11-05T09:56:37.714Z,24.38
2022-11-05T09:59:24.960Z,13.63
2022-11-05T10:02:10.022Z,28.17
2022-11-05T10:04:38.732Z,19.70
2022-11-05T10:07:13.029Z,16.15
2022-11-05T10:09:48.003Z,17.40
2022-11-05T10:12:24.414Z,18.63
2022-11-05T10:15:10.999Z,18.77
2022-11-05T10:17:43.046Z,19.52
2022-11-05T10:20:33.647Z,19.52
2022-11-05T10:23:12.621Z,22.17
2022-11-05T10:25:46.896Z,14.35
2022-11-05T10:28:20.872Z,27.93
2022-11-05T10:30:53.012Z,13.30
2022-11-05T10:33:35.726Z,19.67
2022-11-05T10:36:22.179Z,23.83
2022-11-05T10:38:50.240Z,12.68
2022-11-05T10:41:38.061Z,11.82
2022-11-05T10:44:28.059Z,11.23
2022-11-05T10:47:53.498Z,17.77
2022-11-05T10:50:26.840Z,15.85
2022-11-05T10:53:15.900Z,11.85
2022-11-05T10:55:48.188Z,18.80
2022-11-05T10:58:23.007Z,10.32
2022-11-05T11:04:04.113Z,10.70
2022-11-05T11:06:39.650Z,12.50
2022-11-05T11:09:20.342Z,18.02
2022-11-05T11:12:03.136Z,23.27
2022-11-05T11:14:31.242Z,20.92
2022-11-05T11:17:30.142Z,14.98
2022-11-05T11:20:32.857Z,17.13
2022-11-05T11:23:15.035Z,25.60
2022-11-05T11:25:48.444Z,13.73
2022-11-05T11:28:31.229Z,8.02
2022-11-05T11:31:23.717Z,18.30
2022-11-05T11:34:07.845Z,11.40
2022-11-05T11:36:47.881Z,11.27
2022-11-05T11:39:25.276Z,13.70
2022-11-05T11:41:56.510Z,11.30
2022-11-05T11:44:32.117Z,9.95
2022-11-05T11:47:05.945Z,13.18
2022-11-05T11:49:53.171Z,11.90
2022-11-05T11:52:28.448Z,6.63
2022-11-05T11:55:18.700Z,10.77
2022-11-05T11:57:52.850Z,11.02
2022-11-05T12:00:23.688Z,8.80
2022-11-05T12:03:09.272Z,10.20
2022-11-05T12:05:53.049Z,7.45
2022-11-05T12:08:35.758Z,9.40
2022-11-05T12:11:12.626Z,10.70
2022-11-05T12:13:54.533Z,6.65
2022-11-05T12:17:27.479Z,53.58
2022-11-05T12:20:34.252Z,54.75
2022-11-05T12:23:13.690Z,41.08
2022-11-05T12:25:59.066Z,44.50
2022-11-05T12:29:19.088Z,44.95
2022-11-05T12:32:33.174Z,40.88
2022-11-05T12:35:22.794Z,34.33
2022-11-05T12:38:33.042Z,26.02
2022-11-05T12:41:35.296Z,28.40
2022-11-05T12:45:00.349Z,26.73
2022-11-05T12:47:40.164Z,19.45
2022-11-05T12:50:32.492Z,29.80
2022-11-05T12:53:42.339Z,19.88
2022-11-05T12:56:31.283Z,22.30
2022-11-05T12:59:27.755Z,17.98
2022-11-05T13:02:37.008Z,11.07
2022-11-05T13:05:36.847Z,13.15
2022-11-05T13:08:23.900Z,7.63
2022-11-05T13:11:21.118Z,10.07
2022-11-05T13:14:33.345Z,7.65
2022-11-05T13:17:15.582Z,18.95
2022-11-05T13:20:17.513Z,7.72
2022-11-05T13:22:48.267Z,12.27
2022-11-05T13:25:28.536Z,7.28
2022-11-05T13:28:05.636Z,6.60
2022-11-05T13:30:42.207Z,7.70
2022-11-05T13:33:22.221Z,7.15
2022-11-05T13:36:33.596Z,12.55
2022-11-05T13:39:09.473Z,9.52
2022-11-05T13:42:03.841Z,9.63
2022-11-05T13:44:44.430Z,7.22
2022-11-05T13:47:46.745Z,9.60
2022-11-05T13:50:26.260Z,7.28
2022-11-05T13:53:43.539Z,9.18
2022-11-05T13:56:52.099Z,14.40
2022-11-05T13:59:54.931Z,16.70
2022-11-05T14:02:28.550Z,8.15
2022-11-05T14:05:01.331Z,5.75
2022-11-05T14:07:33.783Z,11.30
2022-11-05T14:10:25.232Z,13.02
2022-11-05T14:12:55.583Z,16.75
2022-11-05T14:15:28.290Z,9.80
2022-11-05T14:18:03.536Z,17.40
2022-11-05T14:20:33.920Z,9.73
2022-11-05T14:23:26.138Z,9.68
2022-11-05T14:26:00.969Z,10.93
2022-11-05T14:28:42.385Z,10.40
2022-11-05T14:31:19.261Z,12.70
2022-11-05T14:34:04.651Z,11.40
2022-11-05T14:36:40.927Z,9.07
2022-11-05T14:39:20.748Z,11.20
2022-11-05T14:42:02.195Z,8.98
2022-11-05T14:44:34.301Z,9.70
2022-11-05T14:47:06.519Z,14.35
2022-11-05T14:49:51.298Z,14.75
2022-11-05T14:52:20.327Z,9.15
2022-11-05T14:54:55.237Z,7.05
2022-11-05T15:00:29.406Z,10.35
2022-11-05T15:03:03.773Z,15.02
2022-11-05T15:05:51.876Z,10.55
2022-11-05T15:09:04.373Z,13.75
2022-11-05T15:11:43.765Z,5.32
2022-11-05T15:14:22.000Z,11.05
2022-11-05T15:16:56.288Z,6.50
2022-11-05T15:19:32.207Z,6.72
2022-11-05T15:22:06.355Z,10.50
2022-11-05T15:24:35.305Z,7.67
2022-11-05T15:27:22.590Z,7.38
2022-11-05T15:29:50.861Z,6.82
2022-11-05T15:32:24.267Z,7.82
2022-11-05T15:34:55.916Z,7.65
2022-11-05T15:37:26.577Z,9.18
2022-11-05T15:39:55.810Z,13.27
2022-11-05T15:42:26.461Z,5.55
2022-11-05T15:44:57.408Z,5.47
2022-11-05T15:47:32.302Z,10.57
2022-11-05T15:52:54.088Z,8.60
2022-11-05T15:55:24.970Z,6.55
2022-11-05T15:58:00.511Z,10.45
2022-11-05T16:00:30.982Z,11.25
2022-11-05T16:03:24.269Z,9.55
2022-11-05T16:05:53.891Z,8.00
2022-11-05T16:08:30.189Z,7.53
2022-11-05T16:11:01.606Z,8.68
2022-11-05T16:13:32.120Z,6.80
2022-11-05T16:16:03.679Z,6.35
2022-11-05T16:18:40.437Z,7.40
2022-11-05T16:21:22.876Z,6.20
2022-11-05T16:23:50.289Z,14.05
2022-11-05T16:29:36.798Z,10.32
2022-11-05T16:32:30.614Z,10.48
2022-11-05T16:35:03.524Z,8.52
2022-11-05T16:37:40.253Z,12.43
2022-11-05T16:40:23.327Z,18.73
2022-11-05T16:42:53.990Z,17.73
2022-11-05T16:45:24.797Z,10.20
2022-11-05T16:47:52.536Z,13.38
2022-11-05T16:50:29.366Z,14.75
2022-11-05T16:52:57.002Z,12.90
2022-11-05T16:55:24.417Z,10.23
2022-11-05T16:57:54.793Z,9.82
2022-11-05T17:00:24.205Z,12.05
2022-11-05T17:02:52.175Z,19.90
2022-11-05T17:05:26.503Z,14.27
2022-11-05T17:07:54.428Z,15.00
2022-11-05T17:10:24.629Z,11.85
2022-11-05T17:12:52.557Z,13.63
2022-11-05T17:15:22.734Z,10.95
2022-11-05T17:17:51.110Z,17.58
2022-11-05T17:20:32.557Z,12.52
2022-11-05T17:23:05.551Z,12.07
2022-11-05T17:25:33.835Z,14.35
2022-11-05T17:28:01.307Z,15.10
2022-11-05T17:30:28.971Z,11.85
2022-11-05T17:32:56.843Z,8.05
2022-11-05T17:35:24.633Z,15.73
2022-11-05T17:37:52.055Z,10.73
2022-11-05T17:40:25.501Z,9.73
2022-11-05T17:42:53.115Z,8.38
2022-11-05T17:45:21.167Z,9.65
2022-11-05T17:47:48.665Z,12.85
2022-11-05T17:50:18.261Z,10.25
2022-11-05T17:52:45.691Z,12.63
2022-11-05T17:55:19.909Z,11.27
2022-11-05T17:57:49.484Z,6.32
2022-11-05T18:00:22.084Z,17.38
2022-11-05T18:02:52.124Z,6.40
2022-11-05T18:05:21.813Z,5.22
2022-11-05T18:07:50.651Z,8.57
2022-11-05T18:10:18.584Z,5.90
2022-11-05T18:12:47.593Z,7.97
2022-11-05T18:15:15.883Z,11.55
2022-11-05T18:17:45.788Z,8.38
2022-11-05T18:20:18.840Z,13.80
2022-11-05T18:22:50.531Z,9.00
2022-11-05T18:25:18.911Z,5.65
2022-11-05T18:27:46.483Z,8.63
2022-11-05T18:30:15.714Z,4.60
2022-11-05T18:32:44.673Z,5.72
2022-11-05T18:35:13.674Z,11.85
2022-11-05T18:37:42.085Z,6.50
2022-11-05T18:40:10.223Z,14.68
2022-11-05T18:42:38.481Z,10.18
2022-11-05T18:45:07.816Z,9.38
2022-11-05T18:47:35.339Z,13.38
2022-11-05T18:50:03.973Z,13.52
2022-11-05T18:52:33.009Z,5.32
2022-11-05T18:55:00.846Z,6.30
2022-11-05T18:57:29.043Z,14.07
2022-11-05T18:59:56.381Z,9.57
2022-11-05T19:02:26.053Z,8.27
2022-11-05T19:05:22.553Z,10.00
2022-11-05T19:07:41.107Z,12.52
2022-11-05T19:10:09.615Z,9.30
2022-11-05T19:12:37.078Z,19.30
2022-11-05T19:15:05.234Z,5.35
2022-11-05T19:17:34.029Z,9.65
2022-11-05T19:20:02.286Z,10.07
2022-11-05T19:22:29.884Z,12.82
2022-11-05T19:24:57.457Z,10.10
2022-11-05T19:27:24.978Z,10.65
2022-11-05T19:29:52.588Z,11.70
2022-11-05T19:32:21.377Z,7.25
2022-11-05T19:34:49.060Z,12.23
2022-11-05T19:37:16.775Z,8.07
2022-11-05T19:39:44.353Z,17.75
2022-11-05T19:42:11.967Z,8.25
2022-11-05T19:44:42.206Z,9.20
2022-11-05T19:47:10.320Z,9.73
2022-11-05T19:49:37.655Z,8.60
2022-11-05T19:52:05.245Z,14.00
2022-11-05T19:54:32.949Z,8.57
2022-11-05T19:57:00.547Z,6.30
2022-11-05T19:59:28.071Z,6.63
2022-11-05T20:01:56.569Z,7.63
2022-11-05T20:04:25.091Z,11.48
2022-11-05T20:06:52.580Z,6.75
2022-11-05T20:09:22.437Z,6.95
2022-11-05T20:11:54.466Z,6.75
2022-11-05T20:14:24.011Z,6.88
2022-11-05T20:16:51.586Z,10.07
2022-11-05T20:19:21.591Z,10.10
2022-11-05T20:21:49.585Z,12.25
2022-11-05T20:24:24.342Z,5.13
2022-11-05T20:26:57.211Z,5.40
2022-11-05T20:29:32.169Z,3.78
2022-11-05T20:32:03.836Z,7.65
2022-11-05T20:34:33.212Z,7.43
2022-11-05T20:37:01.602Z,6.78
2022-11-05T20:39:29.223Z,6.50
2022-11-05T20:41:57.110Z,7.68
2022-11-05T20:44:24.413Z,6.82
2022-11-05T20:46:51.906Z,8.48
2022-11-05T20:49:24.998Z,7.80
2022-11-05T20:51:53.071Z,8.35
2022-11-05T20:54:20.535Z,7.57
2022-11-05T20:56:48.245Z,8.93
2022-11-05T20:59:15.827Z,10.38
2022-11-05T21:01:44.052Z,6.38
2022-11-05T21:04:11.755Z,9.50
2022-11-05T21:06:39.357Z,5.55
2022-11-05T21:09:06.928Z,5.60
2022-11-05T21:11:54.483Z,8.27
2022-11-05T21:14:22.319Z,9.10
2022-11-05T21:16:49.862Z,6.65
2022-11-05T21:19:17.590Z,9.18
2022-11-05T21:21:45.212Z,8.32
2022-11-05T21:24:12.550Z,6.75
2022-11-05T21:26:40.069Z,8.43
2022-11-05T21:29:08.324Z,8.55
2022-11-05T21:31:38.835Z,8.23
2022-11-05T21:34:06.204Z,4.43
2022-11-05T21:36:34.413Z,8.32
2022-11-05T21:39:02.166Z,11.43
2022-11-05T21:41:29.572Z,15.55
2022-11-05T21:43:59.743Z,12.18
2022-11-05T21:46:27.421Z,19.70
2022-11-05T21:48:55.255Z,12.38
2022-11-05T21:51:41.363Z,15.70
2022-11-05T21:54:31.170Z,17.65
2022-11-05T21:57:17.300Z,15.15
2022-11-05T21:59:48.156Z,14.70
2022-11-05T22:02:22.907Z,17.05
2022-11-05T22:07:29.453Z,21.52
2022-11-05T22:09:57.276Z,15.23
2022-11-05T22:12:25.647Z,14.80
2022-11-05T22:14:53.966Z,17.67
2022-11-05T22:17:22.398Z,13.55
2022-11-05T22:19:50.519Z,16.98
2022-11-05T22:22:18.292Z,17.48
2022-11-05T22:24:45.959Z,19.38
2022-11-05T22:27:16.867Z,17.83
2022-11-05T22:29:44.697Z,18.20
2022-11-05T22:32:12.657Z,15.23
2022-11-05T22:34:40.323Z,18.02
2022-11-05T22:37:08.088Z,17.08
2022-11-05T22:39:35.595Z,14.38
2022-11-05T22:42:07.986Z,14.23
2022-11-05T22:44:39.555Z,15.75
2022-11-05T22:47:07.393Z,13.68
2022-11-05T22:49:35.527Z,12.88
2022-11-05T22:52:03.315Z,17.20
2022-11-05T22:54:35.075Z,15.75
2022-11-05T22:57:05.471Z,16.67
2022-11-05T22:59:33.032Z,11.98
2022-11-05T23:02:03.901Z,13.00
2022-11-05T23:04:33.963Z,18.08
2022-11-05T23:07:24.581Z,12.98
2022-11-05T23:10:13.477Z,9.77
2022-11-05T23:12:42.841Z,16.15
2022-11-05T23:15:30.766Z,10.88
2022-11-05T23:18:17.231Z,12.00
2022-11-05T23:21:03.791Z,10.90
2022-11-05T23:23:54.208Z,11.50
2022-11-05T23:26:40.088Z,11.75
2022-11-05T23:29:07.359Z,11.95
2022-11-05T23:31:53.114Z,11.57
2022-11-05T23:34:20.474Z,11.63
2022-11-05T23:37:06.493Z,10.70
2022-11-05T23:39:38.366Z,9.90
2022-11-05T23:42:27.321Z,9.20
2022-11-05T23:45:14.577Z,10.48
2022-11-05T23:48:02.063Z,11.02
2022-11-05T23:50:35.607Z,11.05
2022-11-05T23:53:07.472Z,9.35
2022-11-05T23:55:35.827Z,8.75
2022-11-05T23:58:03.590Z,9.68
